sensor_id;sensor_type;location;lat;lon;timestamp;P1;durP1;ratioP1;P2;durP2;ratioP2
14923;SDS011;7554;43.600;1.480;2023-02-23T00:01:33;35.73;;;19.03;;
14923;SDS011;7554;43.600;1.480;2023-02-23T00:04:01;49.07;;;20.90;;
14923;SDS011;7554;43.600;1.480;2023-02-23T00:06:31;39.73;;;19.03;;
14923;SDS011;7554;43.600;1.480;2023-02-23T00:09:01;43.87;;;20.37;;
14923;SDS011;7554;43.600;1.480;2023-02-23T00:11:36;45.03;;;18.90;;
14923;SDS011;7554;43.600;1.480;2023-02-23T00:14:04;43.40;;;20.47;;
14923;SDS011;7554;43.600;1.480;2023-02-23T00:16:32;42.53;;;20.80;;
14923;SDS011;7554;43.600;1.480;2023-02-23T00:19:01;47.63;;;21.00;;
14923;SDS011;7554;43.600;1.480;2023-02-23T00:21:33;47.07;;;20.27;;
14923;SDS011;7554;43.600;1.480;2023-02-23T00:24:01;47.70;;;20.30;;
14923;SDS011;7554;43.600;1.480;2023-02-23T00:26:31;40.13;;;19.53;;
14923;SDS011;7554;43.600;1.480;2023-02-23T00:29:00;52.43;;;20.30;;
14923;SDS011;7554;43.600;1.480;2023-02-23T00:31:28;41.33;;;20.50;;
14923;SDS011;7554;43.600;1.480;2023-02-23T00:33:56;48.73;;;21.60;;
14923;SDS011;7554;43.600;1.480;2023-02-23T00:36:27;37.43;;;19.43;;
14923;SDS011;7554;43.600;1.480;2023-02-23T00:38:59;46.20;;;20.50;;
14923;SDS011;7554;43.600;1.480;2023-02-23T00:41:30;45.40;;;19.10;;
14923;SDS011;7554;43.600;1.480;2023-02-23T00:43:58;50.30;;;21.57;;
14923;SDS011;7554;43.600;1.480;2023-02-23T00:46:27;39.83;;;21.43;;
14923;SDS011;7554;43.600;1.480;2023-02-23T00:48:56;50.40;;;21.50;;
14923;SDS011;7554;43.600;1.480;2023-02-23T00:51:26;50.40;;;21.57;;
14923;SDS011;7554;43.600;1.480;2023-02-23T00:53:55;46.30;;;21.93;;
14923;SDS011;7554;43.600;1.480;2023-02-23T00:56:25;45.17;;;21.47;;
14923;SDS011;7554;43.600;1.480;2023-02-23T00:58:53;50.00;;;22.70;;
14923;SDS011;7554;43.600;1.480;2023-02-23T01:01:21;54.57;;;23.57;;
14923;SDS011;7554;43.600;1.480;2023-02-23T01:03:49;48.77;;;22.47;;
14923;SDS011;7554;43.600;1.480;2023-02-23T01:06:17;52.30;;;22.60;;
14923;SDS011;7554;43.600;1.480;2023-02-23T01:08:46;48.83;;;22.10;;
14923;SDS011;7554;43.600;1.480;2023-02-23T01:11:15;57.73;;;22.33;;
14923;SDS011;7554;43.600;1.480;2023-02-23T01:13:47;49.00;;;21.93;;
14923;SDS011;7554;43.600;1.480;2023-02-23T01:16:17;43.57;;;21.33;;
14923;SDS011;7554;43.600;1.480;2023-02-23T01:18:46;55.07;;;22.83;;
14923;SDS011;7554;43.600;1.480;2023-02-23T01:21:14;50.30;;;22.60;;
14923;SDS011;7554;43.600;1.480;2023-02-23T01:23:43;53.67;;;23.57;;
14923;SDS011;7554;43.600;1.480;2023-02-23T01:26:13;52.13;;;22.93;;
14923;SDS011;7554;43.600;1.480;2023-02-23T01:28:43;53.03;;;23.63;;
14923;SDS011;7554;43.600;1.480;2023-02-23T01:31:15;55.63;;;23.30;;
14923;SDS011;7554;43.600;1.480;2023-02-23T01:33:42;48.63;;;22.67;;
14923;SDS011;7554;43.600;1.480;2023-02-23T01:36:11;46.53;;;22.43;;
14923;SDS011;7554;43.600;1.480;2023-02-23T01:38:39;57.87;;;23.30;;
14923;SDS011;7554;43.600;1.480;2023-02-23T01:41:06;50.13;;;23.60;;
14923;SDS011;7554;43.600;1.480;2023-02-23T01:43:34;49.43;;;21.73;;
14923;SDS011;7554;43.600;1.480;2023-02-23T01:46:03;52.40;;;23.37;;
14923;SDS011;7554;43.600;1.480;2023-02-23T01:48:31;52.40;;;22.30;;
14923;SDS011;7554;43.600;1.480;2023-02-23T01:51:01;49.63;;;21.37;;
14923;SDS011;7554;43.600;1.480;2023-02-23T01:53:33;49.67;;;22.00;;
14923;SDS011;7554;43.600;1.480;2023-02-23T01:56:06;50.93;;;22.53;;
14923;SDS011;7554;43.600;1.480;2023-02-23T01:58:36;46.87;;;21.57;;
14923;SDS011;7554;43.600;1.480;2023-02-23T02:01:09;51.73;;;23.67;;
14923;SDS011;7554;43.600;1.480;2023-02-23T02:03:38;48.40;;;22.43;;
14923;SDS011;7554;43.600;1.480;2023-02-23T02:06:08;43.83;;;22.73;;
14923;SDS011;7554;43.600;1.480;2023-02-23T02:08:39;51.53;;;22.67;;
14923;SDS011;7554;43.600;1.480;2023-02-23T02:11:10;49.40;;;23.80;;
14923;SDS011;7554;43.600;1.480;2023-02-23T02:13:50;52.07;;;21.33;;
14923;SDS011;7554;43.600;1.480;2023-02-23T02:16:33;47.83;;;22.03;;
14923;SDS011;7554;43.600;1.480;2023-02-23T02:25:29;44.87;;;20.17;;
14923;SDS011;7554;43.600;1.480;2023-02-23T02:34:19;39.17;;;19.17;;
14923;SDS011;7554;43.600;1.480;2023-02-23T02:40:10;51.03;;;20.43;;
14923;SDS011;7554;43.600;1.480;2023-02-23T02:42:55;48.33;;;20.90;;
14923;SDS011;7554;43.600;1.480;2023-02-23T02:45:33;52.50;;;20.80;;
14923;SDS011;7554;43.600;1.480;2023-02-23T02:48:09;45.37;;;19.83;;
14923;SDS011;7554;43.600;1.480;2023-02-23T02:50:42;54.33;;;20.33;;
14923;SDS011;7554;43.600;1.480;2023-02-23T02:53:19;46.30;;;19.10;;
14923;SDS011;7554;43.600;1.480;2023-02-23T02:55:52;47.10;;;19.33;;
14923;SDS011;7554;43.600;1.480;2023-02-23T02:58:23;48.47;;;20.30;;
14923;SDS011;7554;43.600;1.480;2023-02-23T03:00:52;52.47;;;21.47;;
14923;SDS011;7554;43.600;1.480;2023-02-23T03:03:37;45.80;;;21.33;;
14923;SDS011;7554;43.600;1.480;2023-02-23T03:06:25;50.97;;;20.87;;
14923;SDS011;7554;43.600;1.480;2023-02-23T03:09:19;40.73;;;19.90;;
14923;SDS011;7554;43.600;1.480;2023-02-23T03:12:15;58.97;;;20.13;;
14923;SDS011;7554;43.600;1.480;2023-02-23T03:15:10;45.73;;;19.87;;
14923;SDS011;7554;43.600;1.480;2023-02-23T03:18:06;44.10;;;18.90;;
14923;SDS011;7554;43.600;1.480;2023-02-23T03:21:04;46.00;;;19.17;;
14923;SDS011;7554;43.600;1.480;2023-02-23T03:23:59;42.27;;;18.43;;
14923;SDS011;7554;43.600;1.480;2023-02-23T03:26:52;48.60;;;18.67;;
14923;SDS011;7554;43.600;1.480;2023-02-23T03:29:41;46.67;;;18.80;;
14923;SDS011;7554;43.600;1.480;2023-02-23T03:32:32;75.87;;;19.03;;
14923;SDS011;7554;43.600;1.480;2023-02-23T03:35:24;66.90;;;17.73;;
14923;SDS011;7554;43.600;1.480;2023-02-23T03:38:16;40.80;;;17.43;;
14923;SDS011;7554;43.600;1.480;2023-02-23T03:41:03;37.10;;;15.13;;
14923;SDS011;7554;43.600;1.480;2023-02-23T03:43:54;40.50;;;13.83;;
14923;SDS011;7554;43.600;1.480;2023-02-23T03:46:42;52.77;;;14.70;;
14923;SDS011;7554;43.600;1.480;2023-02-23T03:49:30;36.07;;;13.70;;
14923;SDS011;7554;43.600;1.480;2023-02-23T03:52:29;34.20;;;13.63;;
14923;SDS011;7554;43.600;1.480;2023-02-23T03:55:20;31.37;;;13.23;;
14923;SDS011;7554;43.600;1.480;2023-02-23T03:58:09;30.30;;;13.70;;
14923;SDS011;7554;43.600;1.480;2023-02-23T04:00:59;26.60;;;13.67;;
14923;SDS011;7554;43.600;1.480;2023-02-23T04:03:46;27.87;;;14.47;;
14923;SDS011;7554;43.600;1.480;2023-02-23T04:06:34;30.93;;;14.23;;
14923;SDS011;7554;43.600;1.480;2023-02-23T04:09:22;42.43;;;14.00;;
14923;SDS011;7554;43.600;1.480;2023-02-23T04:12:08;33.83;;;15.80;;
14923;SDS011;7554;43.600;1.480;2023-02-23T04:14:59;37.53;;;15.77;;
14923;SDS011;7554;43.600;1.480;2023-02-23T04:17:34;84.53;;;17.27;;
14923;SDS011;7554;43.600;1.480;2023-02-23T04:20:02;60.30;;;15.47;;
14923;SDS011;7554;43.600;1.480;2023-02-23T04:22:32;47.50;;;15.00;;
14923;SDS011;7554;43.600;1.480;2023-02-23T04:25:00;41.23;;;14.43;;
14923;SDS011;7554;43.600;1.480;2023-02-23T04:27:27;39.33;;;15.53;;
14923;SDS011;7554;43.600;1.480;2023-02-23T04:29:55;81.73;;;16.87;;
14923;SDS011;7554;43.600;1.480;2023-02-23T04:32:22;23.10;;;13.43;;
14923;SDS011;7554;43.600;1.480;2023-02-23T04:34:51;29.30;;;14.00;;
14923;SDS011;7554;43.600;1.480;2023-02-23T04:37:18;26.93;;;13.63;;
14923;SDS011;7554;43.600;1.480;2023-02-23T04:39:46;22.67;;;13.10;;
14923;SDS011;7554;43.600;1.480;2023-02-23T04:42:14;24.30;;;13.93;;
14923;SDS011;7554;43.600;1.480;2023-02-23T04:44:42;27.93;;;12.83;;
14923;SDS011;7554;43.600;1.480;2023-02-23T04:47:10;19.27;;;13.20;;
14923;SDS011;7554;43.600;1.480;2023-02-23T04:49:37;31.00;;;13.33;;
14923;SDS011;7554;43.600;1.480;2023-02-23T04:52:06;23.73;;;12.67;;
14923;SDS011;7554;43.600;1.480;2023-02-23T04:54:36;20.40;;;12.50;;
14923;SDS011;7554;43.600;1.480;2023-02-23T04:57:03;23.40;;;13.17;;
14923;SDS011;7554;43.600;1.480;2023-02-23T04:59:31;21.27;;;12.30;;
14923;SDS011;7554;43.600;1.480;2023-02-23T05:01:59;19.87;;;11.90;;
14923;SDS011;7554;43.600;1.480;2023-02-23T05:04:27;30.63;;;12.27;;
14923;SDS011;7554;43.600;1.480;2023-02-23T05:06:54;22.60;;;12.80;;
14923;SDS011;7554;43.600;1.480;2023-02-23T05:09:23;29.73;;;12.70;;
14923;SDS011;7554;43.600;1.480;2023-02-23T05:11:51;28.80;;;13.37;;
14923;SDS011;7554;43.600;1.480;2023-02-23T05:14:19;21.50;;;12.90;;
14923;SDS011;7554;43.600;1.480;2023-02-23T05:16:46;25.47;;;13.27;;
14923;SDS011;7554;43.600;1.480;2023-02-23T05:19:14;24.07;;;13.17;;
14923;SDS011;7554;43.600;1.480;2023-02-23T05:21:41;34.33;;;14.00;;
14923;SDS011;7554;43.600;1.480;2023-02-23T05:24:09;32.47;;;13.17;;
14923;SDS011;7554;43.600;1.480;2023-02-23T05:26:38;114.87;;;14.73;;
14923;SDS011;7554;43.600;1.480;2023-02-23T05:29:05;53.73;;;12.40;;
14923;SDS011;7554;43.600;1.480;2023-02-23T05:31:33;20.17;;;13.20;;
14923;SDS011;7554;43.600;1.480;2023-02-23T05:34:00;24.93;;;13.20;;
14923;SDS011;7554;43.600;1.480;2023-02-23T05:36:27;24.60;;;14.07;;
14923;SDS011;7554;43.600;1.480;2023-02-23T05:38:55;26.77;;;13.60;;
14923;SDS011;7554;43.600;1.480;2023-02-23T05:41:22;25.73;;;12.97;;
14923;SDS011;7554;43.600;1.480;2023-02-23T05:43:51;40.13;;;12.23;;
14923;SDS011;7554;43.600;1.480;2023-02-23T05:46:21;36.47;;;11.83;;
14923;SDS011;7554;43.600;1.480;2023-02-23T05:48:49;20.47;;;12.27;;
14923;SDS011;7554;43.600;1.480;2023-02-23T05:51:17;32.03;;;14.07;;
14923;SDS011;7554;43.600;1.480;2023-02-23T05:53:45;22.00;;;12.10;;
14923;SDS011;7554;43.600;1.480;2023-02-23T05:56:13;24.60;;;11.80;;
14923;SDS011;7554;43.600;1.480;2023-02-23T05:58:45;29.03;;;11.67;;
14923;SDS011;7554;43.600;1.480;2023-02-23T06:01:14;29.23;;;13.00;;
14923;SDS011;7554;43.600;1.480;2023-02-23T06:03:42;22.13;;;13.20;;
14923;SDS011;7554;43.600;1.480;2023-02-23T06:06:09;29.10;;;11.90;;
14923;SDS011;7554;43.600;1.480;2023-02-23T06:08:37;30.80;;;10.57;;
14923;SDS011;7554;43.600;1.480;2023-02-23T06:11:05;33.57;;;10.53;;
14923;SDS011;7554;43.600;1.480;2023-02-23T06:13:32;24.50;;;10.97;;
14923;SDS011;7554;43.600;1.480;2023-02-23T06:16:00;30.97;;;11.77;;
14923;SDS011;7554;43.600;1.480;2023-02-23T06:18:29;34.77;;;10.90;;
14923;SDS011;7554;43.600;1.480;2023-02-23T06:20:57;38.63;;;12.50;;
14923;SDS011;7554;43.600;1.480;2023-02-23T06:23:26;39.20;;;11.17;;
14923;SDS011;7554;43.600;1.480;2023-02-23T06:25:54;38.43;;;11.80;;
14923;SDS011;7554;43.600;1.480;2023-02-23T06:28:22;93.03;;;12.73;;
14923;SDS011;7554;43.600;1.480;2023-02-23T06:30:50;105.57;;;12.17;;
14923;SDS011;7554;43.600;1.480;2023-02-23T06:33:18;148.83;;;12.87;;
14923;SDS011;7554;43.600;1.480;2023-02-23T06:35:47;47.10;;;12.00;;
14923;SDS011;7554;43.600;1.480;2023-02-23T06:38:15;35.23;;;10.30;;
14923;SDS011;7554;43.600;1.480;2023-02-23T06:40:43;55.60;;;10.63;;
14923;SDS011;7554;43.600;1.480;2023-02-23T06:43:10;34.80;;;11.07;;
14923;SDS011;7554;43.600;1.480;2023-02-23T06:45:38;26.10;;;11.50;;
14923;SDS011;7554;43.600;1.480;2023-02-23T06:48:06;46.83;;;10.47;;
14923;SDS011;7554;43.600;1.480;2023-02-23T06:50:34;25.60;;;9.03;;
14923;SDS011;7554;43.600;1.480;2023-02-23T06:53:03;48.33;;;12.47;;
14923;SDS011;7554;43.600;1.480;2023-02-23T06:55:31;31.80;;;10.50;;
14923;SDS011;7554;43.600;1.480;2023-02-23T06:57:58;28.00;;;12.43;;
14923;SDS011;7554;43.600;1.480;2023-02-23T07:00:26;23.87;;;11.27;;
14923;SDS011;7554;43.600;1.480;2023-02-23T07:02:55;28.30;;;12.30;;
14923;SDS011;7554;43.600;1.480;2023-02-23T07:05:24;45.50;;;12.27;;
14923;SDS011;7554;43.600;1.480;2023-02-23T07:07:51;28.70;;;12.40;;
14923;SDS011;7554;43.600;1.480;2023-02-23T07:10:20;43.27;;;13.27;;
14923;SDS011;7554;43.600;1.480;2023-02-23T07:12:47;32.23;;;12.73;;
14923;SDS011;7554;43.600;1.480;2023-02-23T07:15:15;45.23;;;13.27;;
14923;SDS011;7554;43.600;1.480;2023-02-23T07:17:44;50.33;;;13.90;;
14923;SDS011;7554;43.600;1.480;2023-02-23T07:20:13;73.77;;;12.73;;
14923;SDS011;7554;43.600;1.480;2023-02-23T07:22:41;129.27;;;14.97;;
14923;SDS011;7554;43.600;1.480;2023-02-23T07:25:08;40.60;;;13.40;;
14923;SDS011;7554;43.600;1.480;2023-02-23T07:27:38;98.97;;;15.03;;
14923;SDS011;7554;43.600;1.480;2023-02-23T07:30:07;32.77;;;13.97;;
14923;SDS011;7554;43.600;1.480;2023-02-23T07:32:35;43.57;;;15.07;;
14923;SDS011;7554;43.600;1.480;2023-02-23T07:35:02;36.70;;;16.00;;
14923;SDS011;7554;43.600;1.480;2023-02-23T07:37:30;38.10;;;15.47;;
14923;SDS011;7554;43.600;1.480;2023-02-23T07:39:58;37.53;;;15.10;;
14923;SDS011;7554;43.600;1.480;2023-02-23T07:42:25;34.03;;;15.47;;
14923;SDS011;7554;43.600;1.480;2023-02-23T07:44:54;27.70;;;13.17;;
14923;SDS011;7554;43.600;1.480;2023-02-23T07:47:22;30.30;;;13.23;;
14923;SDS011;7554;43.600;1.480;2023-02-23T07:49:55;25.27;;;13.17;;
14923;SDS011;7554;43.600;1.480;2023-02-23T07:52:24;26.47;;;13.30;;
14923;SDS011;7554;43.600;1.480;2023-02-23T07:54:51;30.83;;;13.23;;
14923;SDS011;7554;43.600;1.480;2023-02-23T07:57:19;26.30;;;12.93;;
14923;SDS011;7554;43.600;1.480;2023-02-23T07:59:46;23.33;;;12.40;;
14923;SDS011;7554;43.600;1.480;2023-02-23T08:02:15;28.70;;;13.50;;
14923;SDS011;7554;43.600;1.480;2023-02-23T08:04:43;30.23;;;14.57;;
14923;SDS011;7554;43.600;1.480;2023-02-23T08:07:10;26.50;;;14.03;;
14923;SDS011;7554;43.600;1.480;2023-02-23T08:09:37;29.47;;;14.77;;
14923;SDS011;7554;43.600;1.480;2023-02-23T08:12:06;23.03;;;13.07;;
14923;SDS011;7554;43.600;1.480;2023-02-23T08:14:34;29.87;;;13.10;;
14923;SDS011;7554;43.600;1.480;2023-02-23T08:17:01;26.80;;;12.17;;
14923;SDS011;7554;43.600;1.480;2023-02-23T08:19:30;22.57;;;12.37;;
14923;SDS011;7554;43.600;1.480;2023-02-23T08:21:58;23.37;;;11.93;;
14923;SDS011;7554;43.600;1.480;2023-02-23T08:24:25;27.57;;;12.20;;
14923;SDS011;7554;43.600;1.480;2023-02-23T08:26:55;22.40;;;12.70;;
14923;SDS011;7554;43.600;1.480;2023-02-23T08:29:22;25.20;;;12.37;;
14923;SDS011;7554;43.600;1.480;2023-02-23T08:31:49;25.37;;;11.43;;
14923;SDS011;7554;43.600;1.480;2023-02-23T08:34:17;24.30;;;11.83;;
14923;SDS011;7554;43.600;1.480;2023-02-23T08:36:46;21.50;;;11.87;;
14923;SDS011;7554;43.600;1.480;2023-02-23T08:39:14;22.90;;;11.23;;
14923;SDS011;7554;43.600;1.480;2023-02-23T08:41:42;19.53;;;11.40;;
14923;SDS011;7554;43.600;1.480;2023-02-23T08:44:09;18.80;;;11.63;;
14923;SDS011;7554;43.600;1.480;2023-02-23T08:46:36;21.83;;;11.07;;
14923;SDS011;7554;43.600;1.480;2023-02-23T08:49:04;26.00;;;11.87;;
14923;SDS011;7554;43.600;1.480;2023-02-23T08:51:34;28.80;;;11.57;;
14923;SDS011;7554;43.600;1.480;2023-02-23T08:54:03;17.63;;;11.10;;
14923;SDS011;7554;43.600;1.480;2023-02-23T08:56:36;25.50;;;11.77;;
14923;SDS011;7554;43.600;1.480;2023-02-23T08:59:04;28.47;;;12.33;;
14923;SDS011;7554;43.600;1.480;2023-02-23T09:01:31;29.53;;;13.23;;
14923;SDS011;7554;43.600;1.480;2023-02-23T09:03:59;22.23;;;12.40;;
14923;SDS011;7554;43.600;1.480;2023-02-23T09:06:26;24.13;;;12.17;;
14923;SDS011;7554;43.600;1.480;2023-02-23T09:08:54;26.03;;;13.80;;
14923;SDS011;7554;43.600;1.480;2023-02-23T09:11:23;27.23;;;13.83;;
14923;SDS011;7554;43.600;1.480;2023-02-23T09:13:50;29.03;;;13.00;;
14923;SDS011;7554;43.600;1.480;2023-02-23T09:16:17;31.00;;;13.57;;
14923;SDS011;7554;43.600;1.480;2023-02-23T09:18:45;28.53;;;14.67;;
14923;SDS011;7554;43.600;1.480;2023-02-23T09:21:13;32.43;;;14.37;;
14923;SDS011;7554;43.600;1.480;2023-02-23T09:23:45;29.17;;;14.70;;
14923;SDS011;7554;43.600;1.480;2023-02-23T09:26:15;30.57;;;13.97;;
14923;SDS011;7554;43.600;1.480;2023-02-23T09:28:44;23.33;;;14.07;;
14923;SDS011;7554;43.600;1.480;2023-02-23T09:31:13;26.90;;;13.47;;
14923;SDS011;7554;43.600;1.480;2023-02-23T09:33:42;30.97;;;13.83;;
14923;SDS011;7554;43.600;1.480;2023-02-23T09:36:09;27.57;;;12.93;;
14923;SDS011;7554;43.600;1.480;2023-02-23T09:38:40;27.37;;;12.80;;
14923;SDS011;7554;43.600;1.480;2023-02-23T09:41:09;26.73;;;12.63;;
14923;SDS011;7554;43.600;1.480;2023-02-23T09:44:01;21.57;;;11.70;;
14923;SDS011;7554;43.600;1.480;2023-02-23T09:46:33;30.70;;;12.40;;
14923;SDS011;7554;43.600;1.480;2023-02-23T09:49:09;19.13;;;10.83;;
14923;SDS011;7554;43.600;1.480;2023-02-23T09:51:43;21.03;;;11.30;;
14923;SDS011;7554;43.600;1.480;2023-02-23T09:54:15;27.90;;;11.47;;
14923;SDS011;7554;43.600;1.480;2023-02-23T09:56:45;19.90;;;7.80;;
14923;SDS011;7554;43.600;1.480;2023-02-23T09:59:16;4.60;;;2.77;;
14923;SDS011;7554;43.600;1.480;2023-02-23T10:01:49;3.83;;;2.33;;
14923;SDS011;7554;43.600;1.480;2023-02-23T10:04:24;4.53;;;2.03;;
14923;SDS011;7554;43.600;1.480;2023-02-23T10:06:57;4.37;;;2.27;;
14923;SDS011;7554;43.600;1.480;2023-02-23T10:09:41;2.77;;;1.53;;
14923;SDS011;7554;43.600;1.480;2023-02-23T10:12:21;1.80;;;1.17;;
14923;SDS011;7554;43.600;1.480;2023-02-23T10:15:03;0.83;;;0.67;;
14923;SDS011;7554;43.600;1.480;2023-02-23T10:17:41;0.97;;;0.53;;
14923;SDS011;7554;43.600;1.480;2023-02-23T10:20:15;1.60;;;0.70;;
14923;SDS011;7554;43.600;1.480;2023-02-23T10:22:48;0.70;;;0.63;;
14923;SDS011;7554;43.600;1.480;2023-02-23T10:25:18;1.00;;;0.80;;
14923;SDS011;7554;43.600;1.480;2023-02-23T10:27:49;0.63;;;0.60;;
14923;SDS011;7554;43.600;1.480;2023-02-23T10:30:20;0.90;;;0.70;;
14923;SDS011;7554;43.600;1.480;2023-02-23T10:32:51;0.73;;;0.53;;
14923;SDS011;7554;43.600;1.480;2023-02-23T10:35:25;3.00;;;0.80;;
14923;SDS011;7554;43.600;1.480;2023-02-23T10:37:54;0.90;;;0.50;;
14923;SDS011;7554;43.600;1.480;2023-02-23T10:40:23;0.80;;;0.60;;
14923;SDS011;7554;43.600;1.480;2023-02-23T10:42:53;0.83;;;0.50;;
14923;SDS011;7554;43.600;1.480;2023-02-23T10:45:24;1.70;;;1.20;;
14923;SDS011;7554;43.600;1.480;2023-02-23T10:47:55;3.43;;;2.37;;
14923;SDS011;7554;43.600;1.480;2023-02-23T10:50:25;1.20;;;0.77;;
14923;SDS011;7554;43.600;1.480;2023-02-23T10:52:53;0.90;;;0.60;;
14923;SDS011;7554;43.600;1.480;2023-02-23T10:55:26;1.07;;;0.70;;
14923;SDS011;7554;43.600;1.480;2023-02-23T10:58:02;1.63;;;0.83;;
14923;SDS011;7554;43.600;1.480;2023-02-23T11:00:35;1.00;;;0.70;;
14923;SDS011;7554;43.600;1.480;2023-02-23T11:03:15;1.00;;;0.67;;
14923;SDS011;7554;43.600;1.480;2023-02-23T11:05:45;1.77;;;1.30;;
14923;SDS011;7554;43.600;1.480;2023-02-23T11:08:22;1.50;;;1.10;;
14923;SDS011;7554;43.600;1.480;2023-02-23T11:11:00;2.33;;;0.90;;
14923;SDS011;7554;43.600;1.480;2023-02-23T11:13:34;2.03;;;0.90;;
14923;SDS011;7554;43.600;1.480;2023-02-23T11:16:07;1.03;;;0.70;;
14923;SDS011;7554;43.600;1.480;2023-02-23T11:18:38;0.77;;;0.60;;
14923;SDS011;7554;43.600;1.480;2023-02-23T11:21:11;1.20;;;0.77;;
14923;SDS011;7554;43.600;1.480;2023-02-23T11:23:43;1.07;;;0.67;;
14923;SDS011;7554;43.600;1.480;2023-02-23T11:29:02;1.50;;;0.70;;
14923;SDS011;7554;43.600;1.480;2023-02-23T11:31:39;0.60;;;0.50;;
14923;SDS011;7554;43.600;1.480;2023-02-23T11:34:18;1.60;;;0.97;;
14923;SDS011;7554;43.600;1.480;2023-02-23T11:36:56;0.90;;;0.80;;
14923;SDS011;7554;43.600;1.480;2023-02-23T11:39:26;2.40;;;0.90;;
14923;SDS011;7554;43.600;1.480;2023-02-23T11:42:03;0.83;;;0.70;;
14923;SDS011;7554;43.600;1.480;2023-02-23T11:44:40;1.43;;;0.70;;
14923;SDS011;7554;43.600;1.480;2023-02-23T11:47:14;0.80;;;0.70;;
14923;SDS011;7554;43.600;1.480;2023-02-23T11:49:44;3.33;;;1.00;;
14923;SDS011;7554;43.600;1.480;2023-02-23T11:52:14;3.80;;;1.50;;
14923;SDS011;7554;43.600;1.480;2023-02-23T11:54:47;3.97;;;1.70;;
14923;SDS011;7554;43.600;1.480;2023-02-23T11:57:19;1.67;;;1.20;;
14923;SDS011;7554;43.600;1.480;2023-02-23T11:59:47;1.73;;;1.00;;
14923;SDS011;7554;43.600;1.480;2023-02-23T12:02:20;1.80;;;1.33;;
14923;SDS011;7554;43.600;1.480;2023-02-23T12:04:49;1.27;;;0.97;;
14923;SDS011;7554;43.600;1.480;2023-02-23T12:07:29;1.70;;;1.23;;
14923;SDS011;7554;43.600;1.480;2023-02-23T12:10:05;36.80;;;3.70;;
14923;SDS011;7554;43.600;1.480;2023-02-23T12:12:43;2.73;;;1.20;;
14923;SDS011;7554;43.600;1.480;2023-02-23T12:15:21;1.90;;;1.10;;
14923;SDS011;7554;43.600;1.480;2023-02-23T12:17:56;1.97;;;1.10;;
14923;SDS011;7554;43.600;1.480;2023-02-23T12:20:29;5.07;;;1.30;;
14923;SDS011;7554;43.600;1.480;2023-02-23T12:23:01;1.60;;;1.23;;
14923;SDS011;7554;43.600;1.480;2023-02-23T12:25:33;3.57;;;0.97;;
14923;SDS011;7554;43.600;1.480;2023-02-23T12:28:08;1.00;;;0.80;;
14923;SDS011;7554;43.600;1.480;2023-02-23T12:30:40;2.87;;;1.37;;
14923;SDS011;7554;43.600;1.480;2023-02-23T12:33:12;1.60;;;1.23;;
14923;SDS011;7554;43.600;1.480;2023-02-23T12:35:45;1.67;;;1.30;;
14923;SDS011;7554;43.600;1.480;2023-02-23T12:38:21;2.20;;;1.40;;
14923;SDS011;7554;43.600;1.480;2023-02-23T12:40:58;2.53;;;1.70;;
14923;SDS011;7554;43.600;1.480;2023-02-23T12:43:33;1.50;;;1.10;;
14923;SDS011;7554;43.600;1.480;2023-02-23T12:46:07;1.50;;;1.20;;
14923;SDS011;7554;43.600;1.480;2023-02-23T12:48:41;1.80;;;1.33;;
14923;SDS011;7554;43.600;1.480;2023-02-23T12:51:16;1.43;;;1.30;;
14923;SDS011;7554;43.600;1.480;2023-02-23T12:53:48;2.03;;;1.20;;
14923;SDS011;7554;43.600;1.480;2023-02-23T12:59:25;2.00;;;1.00;;
14923;SDS011;7554;43.600;1.480;2023-02-23T13:02:17;2.77;;;1.73;;
14923;SDS011;7554;43.600;1.480;2023-02-23T13:05:07;3.53;;;1.77;;
14923;SDS011;7554;43.600;1.480;2023-02-23T13:07:42;2.50;;;1.50;;
14923;SDS011;7554;43.600;1.480;2023-02-23T13:10:19;3.13;;;2.17;;
14923;SDS011;7554;43.600;1.480;2023-02-23T13:12:54;3.23;;;2.33;;
14923;SDS011;7554;43.600;1.480;2023-02-23T13:15:41;5.20;;;2.00;;
14923;SDS011;7554;43.600;1.480;2023-02-23T13:18:17;3.17;;;1.60;;
14923;SDS011;7554;43.600;1.480;2023-02-23T13:20:53;3.47;;;1.50;;
14923;SDS011;7554;43.600;1.480;2023-02-23T13:23:25;3.90;;;1.80;;
14923;SDS011;7554;43.600;1.480;2023-02-23T13:26:01;4.50;;;1.70;;
14923;SDS011;7554;43.600;1.480;2023-02-23T13:28:48;1.83;;;1.50;;
14923;SDS011;7554;43.600;1.480;2023-02-23T13:31:23;2.30;;;1.67;;
14923;SDS011;7554;43.600;1.480;2023-02-23T13:33:53;1.70;;;1.60;;
14923;SDS011;7554;43.600;1.480;2023-02-23T13:36:23;2.37;;;1.67;;
14923;SDS011;7554;43.600;1.480;2023-02-23T13:41:49;4.53;;;1.70;;
14923;SDS011;7554;43.600;1.480;2023-02-23T13:44:23;1.60;;;1.43;;
14923;SDS011;7554;43.600;1.480;2023-02-23T13:46:56;3.43;;;1.70;;
14923;SDS011;7554;43.600;1.480;2023-02-23T13:49:33;2.67;;;1.77;;
14923;SDS011;7554;43.600;1.480;2023-02-23T13:52:13;3.73;;;1.73;;
14923;SDS011;7554;43.600;1.480;2023-02-23T13:54:52;1.47;;;1.37;;
14923;SDS011;7554;43.600;1.480;2023-02-23T13:57:21;2.30;;;1.63;;
14923;SDS011;7554;43.600;1.480;2023-02-23T13:59:49;4.03;;;2.33;;
14923;SDS011;7554;43.600;1.480;2023-02-23T14:02:22;3.10;;;2.50;;
14923;SDS011;7554;43.600;1.480;2023-02-23T14:05:00;2.27;;;1.90;;
14923;SDS011;7554;43.600;1.480;2023-02-23T14:07:31;2.53;;;1.83;;
14923;SDS011;7554;43.600;1.480;2023-02-23T14:10:04;2.30;;;2.10;;
14923;SDS011;7554;43.600;1.480;2023-02-23T14:12:35;3.17;;;1.60;;
14923;SDS011;7554;43.600;1.480;2023-02-23T14:20:56;2.10;;;1.40;;
14923;SDS011;7554;43.600;1.480;2023-02-23T14:23:34;4.43;;;1.37;;
14923;SDS011;7554;43.600;1.480;2023-02-23T14:26:15;1.90;;;1.60;;
14923;SDS011;7554;43.600;1.480;2023-02-23T14:29:16;4.07;;;1.17;;
14923;SDS011;7554;43.600;1.480;2023-02-23T14:32:01;2.93;;;1.80;;
14923;SDS011;7554;43.600;1.480;2023-02-23T14:34:50;17.97;;;2.67;;
14923;SDS011;7554;43.600;1.480;2023-02-23T14:37:25;1.70;;;1.60;;
14923;SDS011;7554;43.600;1.480;2023-02-23T14:40:00;6.87;;;2.20;;
14923;SDS011;7554;43.600;1.480;2023-02-23T14:42:34;5.20;;;1.90;;
14923;SDS011;7554;43.600;1.480;2023-02-23T14:45:05;2.63;;;1.80;;
14923;SDS011;7554;43.600;1.480;2023-02-23T14:47:44;2.00;;;1.70;;
14923;SDS011;7554;43.600;1.480;2023-02-23T14:50:23;2.10;;;1.70;;
14923;SDS011;7554;43.600;1.480;2023-02-23T14:52:53;2.30;;;2.10;;
14923;SDS011;7554;43.600;1.480;2023-02-23T14:55:23;3.30;;;2.30;;
14923;SDS011;7554;43.600;1.480;2023-02-23T14:57:52;2.73;;;2.40;;
14923;SDS011;7554;43.600;1.480;2023-02-23T15:00:21;2.73;;;2.10;;
14923;SDS011;7554;43.600;1.480;2023-02-23T15:02:53;3.27;;;2.00;;
14923;SDS011;7554;43.600;1.480;2023-02-23T15:05:23;3.60;;;2.83;;
14923;SDS011;7554;43.600;1.480;2023-02-23T15:07:52;2.50;;;1.90;;
14923;SDS011;7554;43.600;1.480;2023-02-23T15:10:25;1.83;;;1.63;;
14923;SDS011;7554;43.600;1.480;2023-02-23T15:12:56;1.97;;;1.83;;
14923;SDS011;7554;43.600;1.480;2023-02-23T15:15:25;2.63;;;1.90;;
14923;SDS011;7554;43.600;1.480;2023-02-23T15:17:55;3.53;;;1.90;;
14923;SDS011;7554;43.600;1.480;2023-02-23T15:20:27;8.37;;;4.47;;
14923;SDS011;7554;43.600;1.480;2023-02-23T15:22:58;3.90;;;2.00;;
14923;SDS011;7554;43.600;1.480;2023-02-23T15:25:35;3.70;;;1.90;;
14923;SDS011;7554;43.600;1.480;2023-02-23T15:28:14;3.27;;;2.10;;
14923;SDS011;7554;43.600;1.480;2023-02-23T15:30:47;4.90;;;3.20;;
14923;SDS011;7554;43.600;1.480;2023-02-23T15:33:16;4.40;;;2.60;;
14923;SDS011;7554;43.600;1.480;2023-02-23T15:35:49;3.00;;;2.70;;
14923;SDS011;7554;43.600;1.480;2023-02-23T15:38:20;4.00;;;2.80;;
14923;SDS011;7554;43.600;1.480;2023-02-23T15:40:53;2.67;;;2.40;;
14923;SDS011;7554;43.600;1.480;2023-02-23T15:43:23;3.60;;;2.93;;
14923;SDS011;7554;43.600;1.480;2023-02-23T15:45:54;6.77;;;2.60;;